sensor_id;sensor_type;location;lat;lon;timestamp;pressure;altitude;pressure_sealevel;temperature;humidity
13709;BME280;54933;51.908;7.730;2023-03-31T00:01:09;99818.53;;;21.27;69.74
13709;BME280;54933;51.908;7.730;2023-03-31T00:03:34;99813.13;;;21.27;69.71
13709;BME280;54933;51.908;7.730;2023-03-31T00:06:03;99814.19;;;21.26;69.55
13709;BME280;54933;51.908;7.730;2023-03-31T00:08:30;99810.44;;;21.27;69.54
13709;BME280;54933;51.908;7.730;2023-03-31T00:11:00;99801.50;;;21.27;69.65
13709;BME280;54933;51.908;7.730;2023-03-31T00:13:26;99789.88;;;21.26;69.87
13709;BME280;54933;51.908;7.730;2023-03-31T00:16:00;99789.88;;;21.26;69.71
13709;BME280;54933;51.908;7.730;2023-03-31T00:18:26;99787.16;;;21.26;69.64
13709;BME280;54933;51.908;7.730;2023-03-31T00:20:52;99784.22;;;21.28;69.50
13709;BME280;54933;51.908;7.730;2023-03-31T00:23:19;99783.41;;;21.27;69.28
13709;BME280;54933;51.908;7.730;2023-03-31T00:25:53;99765.28;;;21.28;69.53
13709;BME280;54933;51.908;7.730;2023-03-31T00:28:19;99773.41;;;21.28;69.52
13709;BME280;54933;51.908;7.730;2023-03-31T00:30:44;99778.81;;;21.28;69.99
13709;BME280;54933;51.908;7.730;2023-03-31T00:33:11;99772.38;;;21.29;69.75
13709;BME280;54933;51.908;7.730;2023-03-31T00:35:36;99763.44;;;21.28;69.61
13709;BME280;54933;51.908;7.730;2023-03-31T00:38:03;99760.72;;;21.28;69.65
13709;BME280;54933;51.908;7.730;2023-03-31T00:40:30;99756.94;;;21.29;69.72
13709;BME280;54933;51.908;7.730;2023-03-31T00:42:55;99766.13;;;21.28;70.10
13709;BME280;54933;51.908;7.730;2023-03-31T00:45:24;99758.59;;;21.30;69.53
13709;BME280;54933;51.908;7.730;2023-03-31T00:47:54;99740.72;;;21.29;69.83
13709;BME280;54933;51.908;7.730;2023-03-31T00:50:25;99740.72;;;21.29;69.68
13709;BME280;54933;51.908;7.730;2023-03-31T00:53:13;99737.78;;;21.31;69.63
13709;BME280;54933;51.908;7.730;2023-03-31T00:55:44;99736.16;;;21.30;69.64
13709;BME280;54933;51.908;7.730;2023-03-31T00:58:10;99728.06;;;21.30;69.67
13709;BME280;54933;51.908;7.730;2023-03-31T01:00:39;99721.81;;;21.29;69.75
13709;BME280;54933;51.908;7.730;2023-03-31T01:03:06;99726.19;;;21.30;69.77
13709;BME280;54933;51.908;7.730;2023-03-31T01:05:43;99722.41;;;21.31;69.89
13709;BME280;54933;51.908;7.730;2023-03-31T01:08:10;99715.13;;;21.32;69.53
13709;BME280;54933;51.908;7.730;2023-03-31T01:10:40;99710.75;;;21.31;69.63
13709;BME280;54933;51.908;7.730;2023-03-31T01:13:09;99705.34;;;21.31;69.64
13709;BME280;54933;51.908;7.730;2023-03-31T01:15:35;99702.66;;;21.31;69.69
13709;BME280;54933;51.908;7.730;2023-03-31T01:18:01;99693.75;;;21.30;69.63
13709;BME280;54933;51.908;7.730;2023-03-31T01:26:35;99678.09;;;21.32;69.67
13709;BME280;54933;51.908;7.730;2023-03-31T01:42:27;99662.97;;;21.31;69.86
13709;BME280;54933;51.908;7.730;2023-03-31T01:47:51;99648.38;;;21.32;69.60
13709;BME280;54933;51.908;7.730;2023-03-31T01:50:33;99653.78;;;21.32;69.85
13709;BME280;54933;51.908;7.730;2023-03-31T01:56:07;99639.47;;;21.32;69.90
13709;BME280;54933;51.908;7.730;2023-03-31T01:59:02;99638.38;;;21.33;69.75
13709;BME280;54933;51.908;7.730;2023-03-31T02:02:03;99629.44;;;21.32;69.99
13709;BME280;54933;51.908;7.730;2023-03-31T02:04:34;99626.75;;;21.32;69.80
13709;BME280;54933;51.908;7.730;2023-03-31T02:07:03;99627.59;;;21.33;69.76
13709;BME280;54933;51.908;7.730;2023-03-31T02:09:37;99624.06;;;21.32;69.93
13709;BME280;54933;51.908;7.730;2023-03-31T02:12:07;99610.53;;;21.32;69.82
13709;BME280;54933;51.908;7.730;2023-03-31T02:14:35;99605.97;;;21.33;69.84
13709;BME280;54933;51.908;7.730;2023-03-31T02:17:03;99606.78;;;21.33;69.75
13709;BME280;54933;51.908;7.730;2023-03-31T02:19:35;99600.56;;;21.33;69.75
13709;BME280;54933;51.908;7.730;2023-03-31T02:22:05;99603.25;;;21.33;69.93
13709;BME280;54933;51.908;7.730;2023-03-31T02:24:33;99594.31;;;21.32;70.03
13709;BME280;54933;51.908;7.730;2023-03-31T02:27:18;99588.91;;;21.32;70.01
13709;BME280;54933;51.908;7.730;2023-03-31T02:29:46;99584.34;;;21.33;69.82
13709;BME280;54933;51.908;7.730;2023-03-31T02:32:20;99578.13;;;21.32;69.82
13709;BME280;54933;51.908;7.730;2023-03-31T02:34:46;99570.00;;;21.32;69.83
13709;BME280;54933;51.908;7.730;2023-03-31T02:37:12;99571.91;;;21.32;69.89
13709;BME280;54933;51.908;7.730;2023-03-31T02:39:40;99570.84;;;21.33;69.89
13709;BME280;54933;51.908;7.730;2023-03-31T02:42:08;99561.91;;;21.32;69.70
13709;BME280;54933;51.908;7.730;2023-03-31T02:44:34;99548.38;;;21.32;69.85
13709;BME280;54933;51.908;7.730;2023-03-31T02:47:01;99549.22;;;21.33;69.97
13709;BME280;54933;51.908;7.730;2023-03-31T02:49:28;99534.88;;;21.32;69.83
13709;BME280;54933;51.908;7.730;2023-03-31T02:52:22;99525.97;;;21.32;69.99
13709;BME280;54933;51.908;7.730;2023-03-31T02:55:09;99519.50;;;21.33;69.73
13709;BME280;54933;51.908;7.730;2023-03-31T02:57:52;99524.06;;;21.32;70.01
13709;BME280;54933;51.908;7.730;2023-03-31T03:00:50;99526.78;;;21.32;70.01
13709;BME280;54933;51.908;7.730;2023-03-31T03:06:04;99516.22;;;21.31;69.86
13709;BME280;54933;51.908;7.730;2023-03-31T03:11:55;99496.25;;;21.32;69.81
13709;BME280;54933;51.908;7.730;2023-03-31T03:17:08;99478.13;;;21.32;69.95
13709;BME280;54933;51.908;7.730;2023-03-31T03:19:35;99473.56;;;21.33;69.78
13709;BME280;54933;51.908;7.730;2023-03-31T03:22:00;99461.94;;;21.32;69.90
13709;BME280;54933;51.908;7.730;2023-03-31T03:24:26;99459.22;;;21.32;69.94
13709;BME280;54933;51.908;7.730;2023-03-31T03:26:53;99453.81;;;21.32;69.40
13709;BME280;54933;51.908;7.730;2023-03-31T03:29:19;99444.66;;;21.33;69.88
13709;BME280;54933;51.908;7.730;2023-03-31T03:31:44;99433.84;;;21.33;69.78
13709;BME280;54933;51.908;7.730;2023-03-31T03:34:09;99419.53;;;21.33;69.94
13709;BME280;54933;51.908;7.730;2023-03-31T03:36:36;99413.06;;;21.34;69.89
13709;BME280;54933;51.908;7.730;2023-03-31T03:39:03;99407.66;;;21.34;69.83
13709;BME280;54933;51.908;7.730;2023-03-31T03:41:29;99401.44;;;21.33;69.82
13709;BME280;54933;51.908;7.730;2023-03-31T03:43:55;99397.66;;;21.34;70.01
13709;BME280;54933;51.908;7.730;2023-03-31T03:46:20;99381.44;;;21.34;69.82
13709;BME280;54933;51.908;7.730;2023-03-31T03:48:46;99381.44;;;21.34;69.74
13709;BME280;54933;51.908;7.730;2023-03-31T03:51:11;99381.44;;;21.34;69.81
13709;BME280;54933;51.908;7.730;2023-03-31T03:53:36;99376.84;;;21.35;70.00
13709;BME280;54933;51.908;7.730;2023-03-31T03:56:02;99377.69;;;21.35;70.03
13709;BME280;54933;51.908;7.730;2023-03-31T03:58:27;99381.44;;;21.34;69.77
13709;BME280;54933;51.908;7.730;2023-03-31T04:00:52;99378.72;;;21.34;69.81
13709;BME280;54933;51.908;7.730;2023-03-31T04:03:18;99369.84;;;21.34;69.89
13709;BME280;54933;51.908;7.730;2023-03-31T04:05:43;99377.13;;;21.33;69.81
13709;BME280;54933;51.908;7.730;2023-03-31T04:08:08;99367.63;;;21.31;69.71
13709;BME280;54933;51.908;7.730;2023-03-31T04:10:34;99354.94;;;21.31;69.63
13709;BME280;54933;51.908;7.730;2023-03-31T04:13:00;99354.94;;;21.31;69.44
13709;BME280;54933;51.908;7.730;2023-03-31T04:15:25;99349.53;;;21.31;69.75
13709;BME280;54933;51.908;7.730;2023-03-31T04:17:51;99344.13;;;21.31;69.52
13709;BME280;54933;51.908;7.730;2023-03-31T04:20:19;99337.88;;;21.31;69.86
13709;BME280;54933;51.908;7.730;2023-03-31T04:22:44;99332.19;;;21.27;69.58
13709;BME280;54933;51.908;7.730;2023-03-31T04:25:12;99327.28;;;21.24;69.32
13709;BME280;54933;51.908;7.730;2023-03-31T04:27:44;99324.03;;;21.22;69.21
13709;BME280;54933;51.908;7.730;2023-03-31T04:30:20;99320.78;;;21.20;69.28
13709;BME280;54933;51.908;7.730;2023-03-31T04:32:53;99320.25;;;21.23;69.37
13709;BME280;54933;51.908;7.730;2023-03-31T04:35:20;99319.13;;;21.19;69.18
13709;BME280;54933;51.908;7.730;2023-03-31T04:37:50;99302.69;;;21.21;69.43
13709;BME280;54933;51.908;7.730;2023-03-31T04:40:16;99299.16;;;21.20;69.59
13709;BME280;54933;51.908;7.730;2023-03-31T04:42:43;99286.97;;;21.18;69.47
13709;BME280;54933;51.908;7.730;2023-03-31T04:45:09;99288.34;;;21.20;69.81
13709;BME280;54933;51.908;7.730;2023-03-31T04:47:35;99277.81;;;21.19;69.86
13709;BME280;54933;51.908;7.730;2023-03-31T04:50:00;99270.22;;;21.16;69.79
13709;BME280;54933;51.908;7.730;2023-03-31T04:52:25;99262.38;;;21.14;69.72
13709;BME280;54933;51.908;7.730;2023-03-31T04:54:50;99251.03;;;21.17;69.30
13709;BME280;54933;51.908;7.730;2023-03-31T04:57:16;99258.06;;;21.18;69.61
13709;BME280;54933;51.908;7.730;2023-03-31T04:59:41;99256.44;;;21.17;69.41
13709;BME280;54933;51.908;7.730;2023-03-31T05:02:06;99252.34;;;21.15;69.69
13709;BME280;54933;51.908;7.730;2023-03-31T05:04:31;99242.63;;;21.14;69.90
13709;BME280;54933;51.908;7.730;2023-03-31T05:06:57;99237.22;;;21.14;70.18
13709;BME280;54933;51.908;7.730;2023-03-31T05:09:22;99238.84;;;21.15;70.17
13709;BME280;54933;51.908;7.730;2023-03-31T05:11:47;99241.81;;;21.13;69.97
13709;BME280;54933;51.908;7.730;2023-03-31T05:14:13;99249.09;;;21.13;70.01
13709;BME280;54933;51.908;7.730;2023-03-31T05:16:38;99252.47;;;21.25;70.21
13709;BME280;54933;51.908;7.730;2023-03-31T05:19:03;99239.66;;;20.94;69.92
13709;BME280;54933;51.908;7.730;2023-03-31T05:21:29;99236.59;;;20.85;67.77
13709;BME280;54933;51.908;7.730;2023-03-31T05:23:56;99236.25;;;20.77;66.28
13709;BME280;54933;51.908;7.730;2023-03-31T05:26:22;99227.97;;;20.83;67.01
13709;BME280;54933;51.908;7.730;2023-03-31T05:28:50;99218.28;;;20.87;67.95
13709;BME280;54933;51.908;7.730;2023-03-31T05:31:15;99207.53;;;20.92;68.75
13709;BME280;54933;51.908;7.730;2023-03-31T05:33:41;99200.56;;;20.96;69.21
13709;BME280;54933;51.908;7.730;2023-03-31T05:36:11;99197.94;;;21.01;69.65
13709;BME280;54933;51.908;7.730;2023-03-31T05:38:37;99184.72;;;21.05;69.72
13709;BME280;54933;51.908;7.730;2023-03-31T05:41:02;99186.13;;;21.07;69.84
13709;BME280;54933;51.908;7.730;2023-03-31T05:43:27;99171.53;;;21.08;69.73
13709;BME280;54933;51.908;7.730;2023-03-31T05:45:53;99168.31;;;21.11;69.72
13709;BME280;54933;51.908;7.730;2023-03-31T05:48:18;99149.41;;;21.11;69.89
13709;BME280;54933;51.908;7.730;2023-03-31T05:50:43;99145.66;;;21.12;69.86
13709;BME280;54933;51.908;7.730;2023-03-31T05:53:09;99141.59;;;21.15;69.83
13709;BME280;54933;51.908;7.730;2023-03-31T05:55:35;99142.44;;;21.15;69.89
13709;BME280;54933;51.908;7.730;2023-03-31T05:58:01;99137.59;;;21.17;70.02
13709;BME280;54933;51.908;7.730;2023-03-31T06:00:26;99131.69;;;21.20;70.03
13709;BME280;54933;51.908;7.730;2023-03-31T06:02:52;99128.97;;;21.20;69.92
13709;BME280;54933;51.908;7.730;2023-03-31T06:05:17;99120.34;;;21.23;69.66
13709;BME280;54933;51.908;7.730;2023-03-31T06:07:42;99124.41;;;21.26;69.51
13709;BME280;54933;51.908;7.730;2023-03-31T06:10:08;99118.22;;;21.25;69.46
13709;BME280;54933;51.908;7.730;2023-03-31T06:12:34;99102.00;;;21.25;69.47
13709;BME280;54933;51.908;7.730;2023-03-31T06:15:00;99097.38;;;21.26;69.52
13709;BME280;54933;51.908;7.730;2023-03-31T06:17:26;99082.00;;;21.26;69.76
13709;BME280;54933;51.908;7.730;2023-03-31T06:19:51;99080.69;;;21.29;69.68
13709;BME280;54933;51.908;7.730;2023-03-31T06:22:16;99076.91;;;21.30;69.57
13709;BME280;54933;51.908;7.730;2023-03-31T06:24:42;99077.72;;;21.30;69.50
13709;BME280;54933;51.908;7.730;2023-03-31T06:27:07;99072.31;;;21.30;69.52
13709;BME280;54933;51.908;7.730;2023-03-31T06:29:32;99084.75;;;21.31;69.68
13709;BME280;54933;51.908;7.730;2023-03-31T06:31:58;99071.25;;;21.31;69.53
13709;BME280;54933;51.908;7.730;2023-03-31T06:34:23;99073.94;;;21.31;69.53
13709;BME280;54933;51.908;7.730;2023-03-31T06:36:48;99063.97;;;21.32;69.62
13709;BME280;54933;51.908;7.730;2023-03-31T06:39:14;99056.91;;;21.31;69.68
13709;BME280;54933;51.908;7.730;2023-03-31T06:41:39;99060.44;;;21.31;69.96
13709;BME280;54933;51.908;7.730;2023-03-31T06:44:04;99052.31;;;21.31;69.62
13709;BME280;54933;51.908;7.730;2023-03-31T06:46:30;99047.75;;;21.32;69.69
13709;BME280;54933;51.908;7.730;2023-03-31T06:48:55;99049.63;;;21.31;69.74
13709;BME280;54933;51.908;7.730;2023-03-31T06:51:21;99046.94;;;21.31;69.65
13709;BME280;54933;51.908;7.730;2023-03-31T06:53:46;99042.34;;;21.32;69.92
13709;BME280;54933;51.908;7.730;2023-03-31T06:56:11;99037.72;;;21.32;69.68
13709;BME280;54933;51.908;7.730;2023-03-31T06:58:37;99033.97;;;21.33;69.90
13709;BME280;54933;51.908;7.730;2023-03-31T07:01:03;99037.72;;;21.32;70.03
13709;BME280;54933;51.908;7.730;2023-03-31T07:03:30;99028.56;;;21.33;69.87
13709;BME280;54933;51.908;7.730;2023-03-31T07:05:56;99028.56;;;21.33;69.89
13709;BME280;54933;51.908;7.730;2023-03-31T07:08:22;99031.28;;;21.33;69.81
13709;BME280;54933;51.908;7.730;2023-03-31T07:10:51;99022.09;;;21.34;69.87
13709;BME280;54933;51.908;7.730;2023-03-31T07:13:18;99030.19;;;21.34;70.01
13709;BME280;54933;51.908;7.730;2023-03-31T07:15:46;99025.59;;;21.35;70.06
13709;BME280;54933;51.908;7.730;2023-03-31T07:18:12;99013.97;;;21.34;70.19
13709;BME280;54933;51.908;7.730;2023-03-31T07:20:40;99015.63;;;21.35;69.88
13709;BME280;54933;51.908;7.730;2023-03-31T07:23:06;99015.88;;;21.34;69.84
13709;BME280;54933;51.908;7.730;2023-03-31T07:25:32;99013.97;;;21.34;69.92
13709;BME280;54933;51.908;7.730;2023-03-31T07:27:58;99020.19;;;21.35;69.85
13709;BME280;54933;51.908;7.730;2023-03-31T07:30:23;99024.78;;;21.34;69.74
13709;BME280;54933;51.908;7.730;2023-03-31T07:32:49;99022.91;;;21.35;70.04
13709;BME280;54933;51.908;7.730;2023-03-31T07:35:15;99023.72;;;21.35;69.86
13709;BME280;54933;51.908;7.730;2023-03-31T07:37:43;99021.03;;;21.35;70.10
13709;BME280;54933;51.908;7.730;2023-03-31T07:40:16;99021.03;;;21.35;69.48
13709;BME280;54933;51.908;7.730;2023-03-31T07:42:42;99022.63;;;21.36;70.15
13709;BME280;54933;51.908;7.730;2023-03-31T07:45:09;99022.63;;;21.36;70.05
13709;BME280;54933;51.908;7.730;2023-03-31T07:47:35;99020.75;;;21.37;69.67
13709;BME280;54933;51.908;7.730;2023-03-31T07:50:01;99018.28;;;21.30;69.93
13709;BME280;54933;51.908;7.730;2023-03-31T07:52:26;99025.84;;;21.28;69.97
13709;BME280;54933;51.908;7.730;2023-03-31T07:54:51;99031.50;;;21.27;70.32
13709;BME280;54933;51.908;7.730;2023-03-31T07:57:17;99024.22;;;21.27;70.15
13709;BME280;54933;51.908;7.730;2023-03-31T07:59:45;99023.97;;;21.29;70.19
13709;BME280;54933;51.908;7.730;2023-03-31T08:02:15;99009.63;;;21.28;70.40
13709;BME280;54933;51.908;7.730;2023-03-31T08:04:41;99009.63;;;21.28;70.23
13709;BME280;54933;51.908;7.730;2023-03-31T08:07:07;99016.13;;;21.27;70.31
13709;BME280;54933;51.908;7.730;2023-03-31T08:09:33;99012.31;;;21.28;70.22
13709;BME280;54933;51.908;7.730;2023-03-31T08:11:58;99008.00;;;21.27;70.42
13709;BME280;54933;51.908;7.730;2023-03-31T08:14:23;99003.41;;;21.28;70.40
13709;BME280;54933;51.908;7.730;2023-03-31T08:16:49;99005.56;;;21.31;70.34
13709;BME280;54933;51.908;7.730;2023-03-31T08:19:15;99006.97;;;21.33;70.56
13709;BME280;54933;51.908;7.730;2023-03-31T08:21:40;98998.28;;;21.31;70.89
13709;BME280;54933;51.908;7.730;2023-03-31T08:24:06;98999.38;;;21.30;70.78
13709;BME280;54933;51.908;7.730;2023-03-31T08:26:31;98998.28;;;21.31;70.44
13709;BME280;54933;51.908;7.730;2023-03-31T08:28:59;98994.78;;;21.31;70.58
13709;BME280;54933;51.908;7.730;2023-03-31T08:31:24;98983.69;;;21.32;70.88
13709;BME280;54933;51.908;7.730;2023-03-31T08:33:50;98981.00;;;21.32;70.63
13709;BME280;54933;51.908;7.730;2023-03-31T08:36:15;98988.03;;;21.33;70.78
13709;BME280;54933;51.908;7.730;2023-03-31T08:38:41;98986.97;;;21.34;70.52
13709;BME280;54933;51.908;7.730;2023-03-31T08:44:09;98987.78;;;21.35;70.49
13709;BME280;54933;51.908;7.730;2023-03-31T08:46:36;98983.19;;;21.35;70.60
13709;BME280;54933;51.908;7.730;2023-03-31T08:49:03;98986.97;;;21.34;70.49
13709;BME280;54933;51.908;7.730;2023-03-31T08:51:33;98985.91;;;21.35;70.30
13709;BME280;54933;51.908;7.730;2023-03-31T08:54:02;98974.00;;;21.36;70.31
13709;BME280;54933;51.908;7.730;2023-03-31T08:56:35;98982.13;;;21.36;70.43
13709;BME280;54933;51.908;7.730;2023-03-31T08:59:03;98972.91;;;21.37;70.35
13709;BME280;54933;51.908;7.730;2023-03-31T09:04:24;98988.59;;;21.35;70.28
13709;BME280;54933;51.908;7.730;2023-03-31T09:07:03;98977.78;;;21.35;69.95
13709;BME280;54933;51.908;7.730;2023-03-31T09:10:02;98947.53;;;21.33;70.03
13709;BME280;54933;51.908;7.730;2023-03-31T09:12:49;98962.34;;;21.31;69.33
13709;BME280;54933;51.908;7.730;2023-03-31T09:15:25;98967.00;;;21.35;69.20
13709;BME280;54933;51.908;7.730;2023-03-31T09:17:51;98950.78;;;21.35;69.43
13709;BME280;54933;51.908;7.730;2023-03-31T09:20:23;98955.91;;;21.37;69.59
13709;BME280;54933;51.908;7.730;2023-03-31T09:23:00;98955.91;;;21.37;69.67
13709;BME280;54933;51.908;7.730;2023-03-31T09:25:31;98967.00;;;21.35;69.88
13709;BME280;54933;51.908;7.730;2023-03-31T09:27:59;98962.91;;;21.33;69.71
13709;BME280;54933;51.908;7.730;2023-03-31T09:30:32;98963.72;;;21.33;69.86
13709;BME280;54933;51.908;7.730;2023-03-31T09:33:28;98948.06;;;21.30;70.17
13709;BME280;54933;51.908;7.730;2023-03-31T09:35:57;98950.75;;;21.30;70.05
13709;BME280;54933;51.908;7.730;2023-03-31T09:38:22;98948.06;;;21.30;70.46
13709;BME280;54933;51.908;7.730;2023-03-31T09:40:48;98948.06;;;21.30;70.63
13709;BME280;54933;51.908;7.730;2023-03-31T09:43:18;98941.00;;;21.29;70.49
13709;BME280;54933;51.908;7.730;2023-03-31T09:45:45;98941.81;;;21.30;70.81
13709;BME280;54933;51.908;7.730;2023-03-31T09:48:14;98942.66;;;21.30;70.63
13709;BME280;54933;51.908;7.730;2023-03-31T09:50:53;98936.16;;;21.31;70.99
13709;BME280;54933;51.908;7.730;2023-03-31T09:53:31;98924.53;;;21.31;70.90
13709;BME280;54933;51.908;7.730;2023-03-31T09:56:01;98913.44;;;21.32;70.77
13709;BME280;54933;51.908;7.730;2023-03-31T09:58:27;98921.56;;;21.32;70.90
13709;BME280;54933;51.908;7.730;2023-03-31T10:01:00;98918.06;;;21.32;70.97
13709;BME280;54933;51.908;7.730;2023-03-31T10:03:26;98916.16;;;21.32;70.64
13709;BME280;54933;51.908;7.730;2023-03-31T10:05:55;98906.16;;;21.33;70.83
13709;BME280;54933;51.908;7.730;2023-03-31T10:08:28;98905.13;;;21.34;70.90
13709;BME280;54933;51.908;7.730;2023-03-31T10:13:39;98903.44;;;21.28;70.71
13709;BME280;54933;51.908;7.730;2023-03-31T10:16:09;98892.09;;;21.26;70.83
13709;BME280;54933;51.908;7.730;2023-03-31T10:18:41;98900.44;;;21.24;70.92
13709;BME280;54933;51.908;7.730;2023-03-31T10:21:23;98891.81;;;21.22;71.00
13709;BME280;54933;51.908;7.730;2023-03-31T10:23:50;98887.78;;;21.25;71.11
13709;BME280;54933;51.908;7.730;2023-03-31T10:26:21;98875.09;;;21.25;71.31
13709;BME280;54933;51.908;7.730;2023-03-31T10:28:49;98878.84;;;21.24;71.12
13709;BME280;54933;51.908;7.730;2023-03-31T10:31:17;98883.19;;;21.25;71.06
13709;BME280;54933;51.908;7.730;2023-03-31T10:33:46;98870.47;;;21.26;71.16
13709;BME280;54933;51.908;7.730;2023-03-31T10:36:48;98867.53;;;21.27;71.13
13709;BME280;54933;51.908;7.730;2023-03-31T10:39:16;98865.06;;;21.26;71.09
13709;BME280;54933;51.908;7.730;2023-03-31T10:41:42;98863.75;;;21.28;71.14
13709;BME280;54933;51.908;7.730;2023-03-31T10:44:30;98852.13;;;21.28;71.13
13709;BME280;54933;51.908;7.730;2023-03-31T10:47:03;98854.56;;;21.29;70.83
13709;BME280;54933;51.908;7.730;2023-03-31T10:49:28;98850.78;;;21.30;70.94
13709;BME280;54933;51.908;7.730;2023-03-31T10:51:56;98854.84;;;21.33;70.71
13709;BME280;54933;51.908;7.730;2023-03-31T10:54:22;98857.53;;;21.33;70.88
13709;BME280;54933;51.908;7.730;2023-03-31T10:56:51;98858.09;;;21.35;70.59
13709;BME280;54933;51.908;7.730;2023-03-31T11:04:59;98846.19;;;21.36;70.53
13709;BME280;54933;51.908;7.730;2023-03-31T11:07:39;98861.63;;;21.35;70.67
13709;BME280;54933;51.908;7.730;2023-03-31T11:10:33;98845.94;;;21.37;70.49
13709;BME280;54933;51.908;7.730;2023-03-31T11:13:09;98840.53;;;21.37;70.60
13709;BME280;54933;51.908;7.730;2023-03-31T11:19:04;98842.72;;;21.40;70.43
13709;BME280;54933;51.908;7.730;2023-03-31T11:21:37;98847.03;;;21.41;70.31
13709;BME280;54933;51.908;7.730;2023-03-31T11:29:37;98845.44;;;21.40;70.34
13709;BME280;54933;51.908;7.730;2023-03-31T11:32:37;98845.44;;;21.40;70.36
13709;BME280;54933;51.908;7.730;2023-03-31T11:40:38;98818.41;;;21.40;70.18
13709;BME280;54933;51.908;7.730;2023-03-31T11:43:18;98813.78;;;21.41;70.39
13709;BME280;54933;51.908;7.730;2023-03-31T11:51:24;98809.22;;;21.41;70.39
13709;BME280;54933;51.908;7.730;2023-03-31T11:53:53;98803.81;;;21.41;70.19
13709;BME280;54933;51.908;7.730;2023-03-31T11:56:22;98808.13;;;21.42;70.42
13709;BME280;54933;51.908;7.730;2023-03-31T11:58:53;98800.00;;;21.42;70.21
13709;BME280;54933;51.908;7.730;2023-03-31T12:01:39;98794.63;;;21.42;70.49
13709;BME280;54933;51.908;7.730;2023-03-31T12:06:40;98797.03;;;21.44;70.53
13709;BME280;54933;51.908;7.730;2023-03-31T12:11:51;98801.66;;;21.43;70.30
13709;BME280;54933;51.908;7.730;2023-03-31T12:16:59;98802.44;;;21.44;70.14
13709;BME280;54933;51.908;7.730;2023-03-31T12:19:37;98801.66;;;21.43;70.25
13709;BME280;54933;51.908;7.730;2023-03-31T12:22:16;98808.69;;;21.44;70.32
13709;BME280;54933;51.908;7.730;2023-03-31T12:24:43;98817.88;;;21.43;70.39
13709;BME280;54933;51.908;7.730;2023-03-31T12:27:35;98815.16;;;21.43;70.23
13709;BME280;54933;51.908;7.730;2023-03-31T12:30:05;98813.25;;;21.44;70.35
13709;BME280;54933;51.908;7.730;2023-03-31T12:32:40;98808.69;;;21.44;70.32
13709;BME280;54933;51.908;7.730;2023-03-31T12:35:23;98808.69;;;21.44;70.11
13709;BME280;54933;51.908;7.730;2023-03-31T12:38:14;98807.06;;;21.43;70.30
13709;BME280;54933;51.908;7.730;2023-03-31T12:40:57;98803.28;;;21.44;70.22
13709;BME280;54933;51.908;7.730;2023-03-31T12:46:23;98801.66;;;21.43;70.27
13709;BME280;54933;51.908;7.730;2023-03-31T12:59:39;98797.03;;;21.44;70.38
13709;BME280;54933;51.908;7.730;2023-03-31T13:04:33;98796.25;;;21.43;70.52
13709;BME280;54933;51.908;7.730;2023-03-31T13:07:01;98793.56;;;21.43;70.21
13709;BME280;54933;51.908;7.730;2023-03-31T13:11:55;98797.88;;;21.44;70.46
13709;BME280;54933;51.908;7.730;2023-03-31T13:14:23;98792.47;;;21.44;70.26
13709;BME280;54933;51.908;7.730;2023-03-31T13:16:50;98792.47;;;21.44;70.46
13709;BME280;54933;51.908;7.730;2023-03-31T13:19:34;98792.47;;;21.44;70.46
13709;BME280;54933;51.908;7.730;2023-03-31T13:22:04;98788.94;;;21.44;70.30
13709;BME280;54933;51.908;7.730;2023-03-31T13:24:30;98794.34;;;21.44;70.27
13709;BME280;54933;51.908;7.730;2023-03-31T13:27:00;98782.75;;;21.43;70.46
13709;BME280;54933;51.908;7.730;2023-03-31T13:29:43;98782.75;;;21.43;70.55
13709;BME280;54933;51.908;7.730;2023-03-31T13:32:22;98788.16;;;21.43;70.46
13709;BME280;54933;51.908;7.730;2023-03-31T13:40:47;98784.34;;;21.44;70.05
13709;BME280;54933;51.908;7.730;2023-03-31T14:02:10;98783.25;;;21.45;70.49
13709;BME280;54933;51.908;7.730;2023-03-31T14:05:09;98773.28;;;21.46;70.36
13709;BME280;54933;51.908;7.730;2023-03-31T14:07:48;98775.16;;;21.45;70.45
13709;BME280;54933;51.908;7.730;2023-03-31T14:10:23;98770.56;;;21.46;70.55
13709;BME280;54933;51.908;7.730;2023-03-31T14:12:48;98767.88;;;21.46;70.27
13709;BME280;54933;51.908;7.730;2023-03-31T14:15:19;98757.88;;;21.46;70.46
13709;BME280;54933;51.908;7.730;2023-03-31T14:17:45;98755.19;;;21.46;70.41
13709;BME280;54933;51.908;7.730;2023-03-31T14:20:27;98745.19;;;21.47;70.23
13709;BME280;54933;51.908;7.730;2023-03-31T14:23:09;98741.66;;;21.46;70.57
13709;BME280;54933;51.908;7.730;2023-03-31T14:28:54;98747.06;;;21.46;70.37
13709;BME280;54933;51.908;7.730;2023-03-31T14:31:36;98742.50;;;21.47;70.36
13709;BME280;54933;51.908;7.730;2023-03-31T14:37:10;98743.28;;;21.47;70.53
13709;BME280;54933;51.908;7.730;2023-03-31T14:39:41;98741.66;;;21.46;70.66
13709;BME280;54933;51.908;7.730;2023-03-31T14:42:12;98748.69;;;21.47;70.49
13709;BME280;54933;51.908;7.730;2023-03-31T14:44:40;98737.88;;;21.47;70.50
13709;BME280;54933;51.908;7.730;2023-03-31T14:47:20;98740.56;;;21.47;70.26
13709;BME280;54933;51.908;7.730;2023-03-31T14:49:46;98733.28;;;21.48;70.47
13709;BME280;54933;51.908;7.730;2023-03-31T14:52:20;98728.72;;;21.48;70.39
13709;BME280;54933;51.908;7.730;2023-03-31T14:54:47;98728.72;;;21.48;70.45
13709;BME280;54933;51.908;7.730;2023-03-31T14:57:16;98724.38;;;21.47;70.41
13709;BME280;54933;51.908;7.730;2023-03-31T14:59:42;98726.78;;;21.49;70.46
13709;BME280;54933;51.908;7.730;2023-03-31T15:02:15;98717.91;;;21.48;70.33
13709;BME280;54933;51.908;7.730;2023-03-31T15:04:42;98727.63;;;21.49;70.32
13709;BME280;54933;51.908;7.730;2023-03-31T15:07:11;98719.50;;;21.49;70.57
13709;BME280;54933;51.908;7.730;2023-03-31T15:09:36;98715.72;;;21.50;70.53
13709;BME280;54933;51.908;7.730;2023-03-31T15:12:04;98708.69;;;21.49;70.54
13709;BME280;54933;51.908;7.730;2023-03-31T15:14:33;98708.16;;;21.47;70.55
13709;BME280;54933;51.908;7.730;2023-03-31T15:16:59;98709.53;;;21.50;70.40
13709;BME280;54933;51.908;7.730;2023-03-31T15:19:28;98707.59;;;21.50;70.28